Latest Weather Observations for Brisbane

IDQ60801

Issued at 2:32 pm EST Monday 3 August 2015 (issued every 30 minutes, with the page automatically refreshed every 10 minutes)

About weather observations | Map of weather stations | Latest weather observations for QLD | Other Formats
Station Details ID: 040913 Name: BRISBANE Lat: -27.48 Lon: 153.04 Height: 8.13 m
Data from the previous 72 hours. | See also: Recent months at Brisbane
Date/Time
EST
Temp
°C
App
Temp
°C
Dew
Point
Rel
Hum
%
Delta-T
°C
Wind Press
QNH
hPa
Press
MSL
hPa
Rain
since 9 am
mm
Dir
 
Spd
km/h
Gust
km/h
Spd
kts
Gust
kts
03/02:30pm 25.4 25.6 14.8 52 6.3 ENE 7 11 4 6 1014.5 1014.5 0.0
03/02:00pm 25.1 25.0 14.9 53 6.1 ENE 9 15 5 8 1014.6 1014.6 0.0
03/01:30pm 25.3 25.0 14.4 50 6.5 ENE 9 13 5 7 1015.0 1015.0 0.0
03/01:00pm 26.3 27.2 14.1 47 7.2 N 2 7 1 4 1015.5 1015.5 0.0
03/12:30pm 25.8 26.0 13.0 45 7.5 NW 4 11 2 6 1016.0 1016.0 0.0
03/12:00pm 25.2 26.0 13.7 49 6.7 NW 2 6 1 3 1016.6 1016.6 0.0
03/11:30am 23.9 24.3 13.7 53 6.0 NNE 4 7 2 4 1017.2 1017.2 0.0
03/11:00am 23.6 23.9 13.5 53 5.9 NNE 4 9 2 5 1017.8 1017.8 0.0
03/10:30am 22.3 22.1 13.1 56 5.3 ENE 6 11 3 6 1018.4 1018.4 0.0
03/10:00am 21.0 21.6 13.2 61 4.4 NE 2 6 1 3 1018.9 1018.9 0.0
03/09:30am 19.5 19.5 12.5 64 3.9 WNW 4 6 2 3 1019.4 1019.4 0.0
03/09:00am 18.6 18.5 13.2 71 3.0 WSW 6 9 3 5 1019.5 1019.5 0.0
03/08:30am 16.8 17.7 12.9 78 2.2 CALM 0 2 0 1 1019.2 1019.2 0.0
03/08:00am 15.4 16.0 13.2 87 1.2 SW 2 4 1 2 1019.2 1019.2 0.0
03/07:30am 13.9 15.0 13.4 97 0.3 CALM 0 0 0 0 1018.8 1018.8 0.0
03/07:00am 11.2 11.4 10.7 97 0.3 CALM 0 0 0 0 1018.6 1018.6 0.0
03/06:30am 10.9 11.0 10.3 96 0.3 CALM 0 0 0 0 1018.3 1018.3 0.0
03/06:00am 10.9 11.0 10.3 96 0.3 CALM 0 0 0 0 1018.3 1018.3 0.0
03/05:30am 11.2 11.4 10.6 96 0.3 CALM 0 0 0 0 1018.2 1018.2 0.0
03/05:00am 11.3 11.5 10.5 95 0.4 CALM 0 0 0 0 1017.9 1017.9 0.0
03/04:30am 11.6 11.9 10.8 95 0.4 CALM 0 0 0 0 1017.9 1017.9 0.0
03/04:00am 11.8 12.0 10.7 93 0.6 CALM 0 0 0 0 1017.9 1017.9 0.0
03/03:30am 12.3 12.6 11.0 92 0.7 CALM 0 0 0 0 1018.0 1018.0 0.0
03/03:00am 12.7 13.1 11.4 92 0.7 CALM 0 0 0 0 1018.1 1018.1 0.0
03/02:30am 13.1 13.3 11.7 91 0.7 ENE 2 4 1 2 1018.1 1018.1 0.0
03/02:00am 13.7 14.1 11.4 86 1.2 CALM 0 0 0 0 1018.4 1018.4 0.0
03/01:30am 14.9 15.2 12.2 84 1.5 NE 2 4 1 2 1018.6 1018.6 0.0
03/01:00am 15.4 15.7 12.2 81 1.7 NNE 2 4 1 2 1019.0 1019.0 0.0
03/12:30am 16.3 16.2 13.2 82 1.7 NNE 6 7 3 4 1019.2 1019.2 0.0
03/12:00am 16.7 17.0 13.4 81 1.8 N 4 7 2 4 1019.4 1019.4 0.0
 
Date/Time
EST
Temp
°C
App
Temp
°C
Dew
Point
Rel
Hum
%
Delta-T
°C
Wind Press
QNH
hPa
Press
MSL
hPa
Rain
since 9 am
mm
Dir
 
Spd
km/h
Gust
km/h
Spd
kts
Gust
kts
02/11:30pm 16.9 17.4 14.0 83 1.6 NNE 4 7 2 4 1019.5 1019.5 0.0
02/11:00pm 16.9 17.4 14.0 83 1.6 NNE 4 6 2 3 1019.5 1019.5 0.0
02/10:30pm 17.4 18.4 14.3 82 1.8 N 2 7 1 4 1019.8 1019.8 0.0
02/10:00pm 17.4 17.7 14.5 83 1.7 N 6 11 3 6 1019.7 1019.7 0.0
02/09:30pm 17.7 18.0 14.4 81 1.9 NNE 6 11 3 6 1019.8 1019.8 0.0
02/09:00pm 18.1 18.8 14.6 80 2.0 N 4 9 2 5 1019.8 1019.8 0.0
02/08:30pm 18.5 18.9 14.8 79 2.2 N 6 13 3 7 1019.7 1019.7 0.0
02/08:00pm 18.7 19.1 14.8 78 2.3 N 6 11 3 6 1019.6 1019.6 0.0
02/07:30pm 18.9 19.3 14.8 77 2.4 N 6 11 3 6 1019.5 1019.5 0.0
02/07:00pm 18.9 19.6 14.4 75 2.6 N 4 7 2 4 1019.6 1019.6 0.0
02/06:30pm 19.1 19.8 14.6 75 2.6 NNE 4 7 2 4 1019.4 1019.4 0.0
02/06:00pm 19.3 19.9 14.3 73 2.9 NNE 4 9 2 5 1019.1 1019.1 0.0
02/05:30pm 20.0 20.1 14.4 70 3.3 NNE 7 15 4 8 1018.8 1018.8 0.0
02/05:00pm 20.8 21.1 14.5 67 3.7 NE 6 9 3 5 1018.6 1018.6 0.0
02/04:30pm 22.2 22.0 14.6 62 4.5 NE 9 19 5 10 1018.6 1018.6 0.0
02/04:00pm 22.8 22.5 14.4 59 4.9 NNE 9 17 5 9 1018.6 1018.6 0.0
02/03:30pm 23.6 23.2 14.0 55 5.6 NNE 9 15 5 8 1018.8 1018.8 0.0
02/03:00pm 23.6 23.3 14.3 56 5.5 NE 9 15 5 8 1018.8 1018.8 0.0
02/02:30pm 23.9 23.2 13.2 51 6.2 NE 9 17 5 9 1019.0 1019.0 0.0
02/02:00pm 25.2 23.8 11.0 41 8.0 N 9 17 5 9 1019.3 1019.3 0.0
02/01:30pm 25.4 24.2 10.4 39 8.3 N 7 15 4 8 1019.5 1019.5 0.0
02/01:00pm 24.8 23.8 10.3 40 8.0 NW 6 11 3 6 1020.1 1020.1 0.0
02/12:30pm 24.5 23.1 9.6 39 8.1 NNW 7 17 4 9 1020.6 1020.6 0.0
02/12:00pm 23.5 22.6 11.2 46 6.9 NNW 7 17 4 9 1021.1 1021.1 0.0
02/11:30am 22.6 22.2 11.0 48 6.4 NNE 4 9 2 5 1021.7 1021.7 0.0
02/11:00am 21.3 21.4 11.6 54 5.4 NW 2 6 1 3 1022.4 1022.4 0.0
02/10:30am 20.0 20.0 11.0 56 4.9 WNW 2 7 1 4 1023.0 1023.0 0.0
02/10:00am 18.9 18.4 10.7 59 4.4 WNW 4 6 2 3 1023.3 1023.3 0.0
02/09:30am 17.5 17.3 10.6 64 3.7 SSW 2 6 1 3 1023.3 1023.3 0.0
02/09:00am 15.6 14.8 9.7 68 3.1 SSW 4 7 2 4 1023.5 1023.5 0.0
02/08:30am 14.4 13.8 10.4 77 2.1 SW 4 6 2 3 1023.3 1023.3 0.0
02/08:00am 12.9 12.2 9.9 82 1.5 WSW 4 6 2 3 1023.3 1023.3 0.0
02/07:30am 11.6 10.7 9.3 86 1.2 WSW 4 7 2 4 1023.2 1023.2 0.0
02/07:00am 10.8 10.0 9.7 93 0.6 SW 4 7 2 4 1023.1 1023.1 0.0
02/06:30am 10.5 10.0 9.4 93 0.5 WSW 2 4 1 2 1022.7 1022.7 0.0
02/06:00am 10.4 9.9 9.5 94 0.4 SSW 2 6 1 3 1022.4 1022.4 0.0
02/05:30am 10.2 10.0 9.0 92 0.6 CALM 0 0 0 0 1022.1 1022.1 0.0
02/05:00am 11.1 10.7 9.7 91 0.7 SW 2 6 1 3 1022.0 1022.0 0.0
02/04:30am 10.7 10.6 9.3 91 0.7 CALM 0 0 0 0 1021.8 1021.8 0.0
02/04:00am 11.5 11.1 9.9 90 0.8 SSW 2 6 1 3 1022.0 1022.0 0.0
02/03:30am 11.8 11.2 10.5 92 0.7 SW 4 7 2 4 1021.8 1021.8 0.0
02/03:00am 11.9 11.7 10.3 90 0.8 WSW 2 4 1 2 1021.9 1021.9 0.0
02/02:30am 12.3 12.5 10.7 90 0.8 CALM 0 4 0 2 1022.1 1022.1 0.0
02/02:00am 12.3 11.9 11.2 93 0.6 SSW 4 9 2 5 1022.2 1022.2 0.0
02/01:30am 12.4 12.4 11.1 92 0.7 SSW 2 6 1 3 1022.3 1022.3 0.0
02/01:00am 12.9 12.9 11.1 89 0.9 ESE 2 4 1 2 1022.5 1022.5 0.0
02/12:30am 13.6 13.8 12.0 90 0.9 E 2 4 1 2 1022.8 1022.8 0.0
02/12:00am 13.7 13.3 11.2 85 1.3 E 4 4 2 2 1023.0 1023.0 0.0
 
Date/Time
EST
Temp
°C
App
Temp
°C
Dew
Point
Rel
Hum
%
Delta-T
°C
Wind Press
QNH
hPa
Press
MSL
hPa
Rain
since 9 am
mm
Dir
 
Spd
km/h
Gust
km/h
Spd
kts
Gust
kts
01/11:30pm 14.8 14.7 12.1 84 1.5 ENE 4 9 2 5 1023.1 1023.1 0.0
01/11:00pm 15.3 15.6 12.2 82 1.7 NE 2 6 1 3 1023.0 1023.0 0.0
01/10:30pm 15.9 16.3 12.5 80 1.9 NNE 2 4 1 2 1023.0 1023.0 0.0
01/10:00pm 16.6 17.5 12.8 78 2.1 CALM 0 6 0 3 1023.1 1023.1 0.0
01/09:30pm 17.1 17.7 13.0 77 2.3 NW 2 6 1 3 1022.9 1022.9 0.0
01/09:00pm 17.2 17.7 12.9 76 2.4 NNE 2 7 1 4 1022.7 1022.7 0.0
01/08:30pm 17.1 17.3 13.2 78 2.2 NNW 4 9 2 5 1022.5 1022.5 0.0
01/08:00pm 16.9 17.2 13.4 80 2.0 NNW 4 13 2 7 1022.5 1022.5 0.0
01/07:30pm 16.5 17.1 13.2 81 1.8 NE 2 4 1 2 1022.1 1022.1 0.0
01/07:00pm 17.2 17.9 13.3 78 2.2 NNE 2 7 1 4 1022.0 1022.0 0.0
01/06:30pm 17.3 17.9 13.0 76 2.4 NNE 2 4 1 2 1021.7 1021.7 0.0
01/06:00pm 17.8 18.0 12.9 73 2.7 NNE 4 7 2 4 1021.5 1021.5 0.0
01/05:30pm 18.2 17.9 12.6 70 3.1 NNE 6 9 3 5 1021.2 1021.2 0.0
01/05:00pm 19.2 18.8 12.5 65 3.7 NNE 6 11 3 6 1021.0 1021.0 0.0
01/04:30pm 20.5 19.9 12.2 59 4.6 NNE 7 13 4 7 1021.1 1021.1 0.0
01/04:00pm 21.3 20.4 11.3 53 5.5 NNE 7 15 4 8 1021.0 1021.0 0.0
01/03:30pm 21.8 20.9 11.2 51 5.9 NE 7 17 4 9 1020.8 1020.8 0.0
01/03:00pm 22.2 20.8 11.0 49 6.2 ENE 9 17 5 9 1020.8 1020.8 0.0
01/02:30pm 23.0 22.2 11.7 49 6.4 NE 7 11 4 6 1020.9 1020.9 0.0
01/02:00pm 22.5 21.6 11.3 49 6.2 NE 7 13 4 7 1020.9 1020.9 0.0
01/01:30pm 22.7 21.5 11.7 49 6.2 ENE 9 15 5 8 1021.0 1021.0 0.0
01/01:00pm 23.0 22.0 11.1 47 6.6 NE 7 15 4 8 1021.4 1021.4 0.0
01/12:30pm 23.4 22.6 11.1 46 6.9 NNW 6 13 3 7 1022.0 1022.0 0.0
01/12:00pm 22.5 21.4 10.0 45 6.8 NNE 6 15 3 8 1022.5 1022.5 0.0
01/11:30am 21.9 21.9 11.3 51 5.9 ENE 2 7 1 4 1023.0 1023.0 0.0
01/11:00am 20.2 19.5 10.0 52 5.5 N 4 9 2 5 1023.5 1023.5 0.0
01/10:30am 19.0 18.2 9.5 54 5.0 WSW 4 6 2 3 1024.0 1024.0 0.0
01/10:00am 17.8 16.9 9.4 58 4.4 SW 4 6 2 3 1024.3 1024.3 0.0
01/09:30am 16.6 15.7 9.1 61 3.9 WSW 4 9 2 5 1024.3 1024.3 0.0
01/09:00am 14.5 13.2 7.5 63 3.4 WSW 4 9 2 5 1024.4 1024.4 0.0
01/08:30am 12.8 10.8 7.3 69 2.7 WSW 7 13 4 7 1024.6 1024.6 0.0
01/08:00am 12.0 10.5 6.7 70 2.5 WSW 4 7 2 4 1024.0 1024.0 0.0
01/07:30am 10.9 9.8 6.8 76 1.9 WSW 2 4 1 2 1023.5 1023.5 0.0
01/07:00am 9.6 8.8 6.5 81 1.4 CALM 0 2 0 1 1023.4 1023.4 0.0
01/06:30am 9.4 8.2 6.5 82 1.3 SW 2 6 1 3 1023.0 1023.0 0.0
01/06:00am 9.4 8.2 6.3 81 1.4 WSW 2 7 1 4 1022.8 1022.8 0.0
01/05:30am 9.3 8.1 6.4 82 1.3 W 2 4 1 2 1022.6 1022.6 0.0
01/05:00am 9.9 8.7 6.6 80 1.5 WSW 2 6 1 3 1022.5 1022.5 0.0
01/04:30am 10.2 9.2 7.3 82 1.4 WSW 2 6 1 3 1022.3 1022.3 0.0
01/04:00am 10.4 9.2 8.0 85 1.2 WSW 4 7 2 4 1022.3 1022.3 0.0
01/03:30am 11.0 10.3 8.6 85 1.2 WSW 2 6 1 3 1022.2 1022.2 0.0
01/03:00am 10.9 10.2 8.5 85 1.2 WSW 2 6 1 3 1022.4 1022.4 0.0
01/02:30am 11.4 10.9 9.3 87 1.1 SW 2 6 1 3 1022.6 1022.6 0.0
01/02:00am 12.1 11.8 10.2 88 1.0 SW 2 6 1 3 1022.6 1022.6 0.0
01/01:30am 12.3 11.8 10.7 90 0.8 WSW 4 6 2 3 1022.7 1022.7 0.0
01/01:00am 12.3 12.3 11.2 93 0.6 WSW 2 4 1 2 1022.9 1022.9 0.0
01/12:30am 11.2 11.4 10.4 95 0.4 CALM 0 2 0 1 1022.9 1022.9 0.0
01/12:00am 11.3 11.4 10.2 93 0.6 CALM 0 0 0 0 1022.8 1022.8 0.0
 
Date/Time
EST
Temp
°C
App
Temp
°C
Dew
Point
Rel
Hum
%
Delta-T
°C
Wind Press
QNH
hPa
Press
MSL
hPa
Rain
since 9 am
mm
Dir
 
Spd
km/h
Gust
km/h
Spd
kts
Gust
kts
31/11:30pm 11.8 12.1 10.9 94 0.5 CALM 0 0 0 0 1022.5 1022.5 0.0
31/11:00pm 11.9 12.1 10.6 92 0.7 CALM 0 0 0 0 1022.4 1022.4 0.0
31/10:30pm 12.2 12.4 10.4 89 0.9 CALM 0 0 0 0 1022.5 1022.5 0.0
31/10:00pm 12.9 13.3 11.1 89 0.9 CALM 0 0 0 0 1022.6 1022.6 0.0
31/09:30pm 13.7 13.9 10.5 81 1.7 CALM 0 4 0 2 1022.4 1022.4 0.0
31/09:00pm 14.5 14.2 11.3 81 1.7 ENE 4 6 2 3 1022.2 1022.2 0.0
31/08:30pm 15.2 15.2 11.2 77 2.1 NE 2 6 1 3 1022.0 1022.0 0.0
31/08:00pm 16.1 16.2 11.5 74 2.5 NNW 2 6 1 3 1021.8 1021.8 0.0
31/07:30pm 16.8 16.6 11.9 73 2.7 N 4 7 2 4 1021.4 1021.4 0.0
31/07:00pm 16.3 16.4 11.5 73 2.6 N 2 6 1 3 1021.1 1021.1 0.0
31/06:30pm 16.8 16.8 11.1 69 3.1 NNE 2 6 1 3 1020.8 1020.8 0.0
31/06:00pm 17.8 17.4 11.1 65 3.6 NE 4 6 2 3 1020.5 1020.5 0.0
31/05:30pm 18.6 17.5 9.9 57 4.6 NE 6 9 3 5 1020.4 1020.4 0.0
31/05:00pm 20.9 19.8 6.8 40 7.1 NE 2 4 1 2 1020.1 1020.1 0.0
31/04:30pm 22.9 21.7 6.6 35 8.4 NNE 2 6 1 3 1020.0 1020.0 0.0
31/04:00pm 23.0 21.5 6.7 35 8.3 ESE 4 7 2 4 1020.1 1020.1 0.0
31/03:30pm 23.7 22.2 6.9 34 8.7 SW 4 7 2 4 1020.0 1020.0 0.0
31/03:00pm 23.5 21.5 7.2 35 8.5 W 7 13 4 7 1020.1 1020.1 0.0

Other Formats:

Comma delimited format used in spreadsheet applications
http://www.bom.gov.au/fwo/IDQ60801/IDQ60801.94576.axf

JavaScript Object Notation format (JSON) in row-major order
http://www.bom.gov.au/fwo/IDQ60801/IDQ60801.94576.json